createdAt,value
2022-11-23T00:01:39.829Z,7.90
2022-11-23T00:06:43.139Z,7.55
2022-11-23T00:11:47.148Z,7.70
2022-11-23T00:16:49.739Z,7.18
2022-11-23T00:21:52.329Z,7.93
2022-11-23T00:26:56.555Z,7.22
2022-11-23T00:31:59.113Z,6.68
2022-11-23T00:37:01.695Z,7.80
2022-11-23T00:42:06.007Z,7.18
2022-11-23T00:47:08.594Z,6.07
2022-11-23T00:52:11.290Z,7.70
2022-11-23T00:57:15.457Z,7.60
2022-11-23T01:02:18.241Z,6.13
2022-11-23T01:07:20.962Z,7.20
2022-11-23T01:12:25.346Z,7.57
2022-11-23T01:17:27.917Z,5.75
2022-11-23T01:22:30.534Z,7.68
2022-11-23T01:27:34.572Z,7.43
2022-11-23T01:32:37.286Z,6.00
2022-11-23T01:37:39.918Z,6.82
2022-11-23T01:42:53.782Z,7.10
2022-11-23T01:47:56.483Z,7.37
2022-11-23T01:52:59.410Z,6.85
2022-11-23T01:58:04.799Z,7.15
2022-11-23T02:03:08.368Z,7.28
2022-11-23T02:08:12.674Z,6.73
2022-11-23T02:13:16.886Z,6.28
2022-11-23T02:18:23.974Z,6.53
2022-11-23T02:23:34.791Z,7.80
2022-11-23T02:28:43.412Z,7.38
2022-11-23T02:33:46.032Z,7.60
2022-11-23T02:38:48.992Z,7.22
2022-11-23T02:43:57.677Z,6.93
2022-11-23T02:49:00.385Z,6.68
2022-11-23T02:54:03.347Z,8.45
2022-11-23T02:59:07.379Z,7.68
2022-11-23T03:04:10.702Z,7.15
2022-11-23T03:09:13.512Z,7.47
2022-11-23T03:14:17.571Z,8.23
2022-11-23T03:19:20.160Z,6.43
2022-11-23T03:24:22.812Z,7.53
2022-11-23T03:29:28.007Z,8.32
2022-11-23T03:34:30.689Z,7.78
2022-11-23T03:39:33.644Z,7.50
2022-11-23T03:44:37.762Z,7.60
2022-11-23T03:49:40.392Z,5.65
2022-11-23T03:54:43.076Z,7.28
2022-11-23T03:59:47.022Z,7.22
2022-11-23T04:04:49.818Z,6.03
2022-11-23T04:09:52.393Z,7.78
2022-11-23T04:14:57.407Z,8.05
2022-11-23T04:20:00.058Z,7.07
2022-11-23T04:25:02.991Z,7.78
2022-11-23T04:30:08.215Z,7.07
2022-11-23T04:35:10.805Z,7.00
2022-11-23T04:40:14.912Z,6.60
2022-11-23T04:45:18.904Z,4.95
2022-11-23T04:50:21.616Z,5.88
2022-11-23T04:55:24.446Z,7.68
2022-11-23T05:00:29.985Z,6.68
2022-11-23T05:05:32.667Z,6.43
2022-11-23T05:10:36.013Z,6.28
2022-11-23T05:15:40.059Z,6.72
2022-11-23T05:20:42.716Z,4.72
2022-11-23T05:25:45.475Z,6.00
2022-11-23T05:30:49.782Z,6.03
2022-11-23T05:35:52.496Z,4.28
2022-11-23T05:40:55.193Z,6.18
2022-11-23T05:46:01.346Z,6.18
2022-11-23T05:51:05.662Z,6.40
2022-11-23T05:56:08.628Z,4.03
2022-11-23T06:01:13.769Z,4.75
2022-11-23T06:06:16.375Z,5.15
2022-11-23T06:11:19.029Z,4.53
2022-11-23T06:16:23.045Z,5.00
2022-11-23T06:21:25.821Z,4.78
2022-11-23T06:26:28.567Z,4.40
2022-11-23T06:31:32.950Z,4.43
2022-11-23T06:36:35.794Z,4.00
2022-11-23T06:41:38.550Z,4.50
2022-11-23T06:46:42.565Z,4.45
2022-11-23T06:51:46.372Z,3.70
2022-11-23T06:56:48.953Z,6.60
2022-11-23T07:01:53.260Z,5.93
2022-11-23T07:06:56.123Z,6.50
2022-11-23T07:11:58.772Z,6.47
2022-11-23T07:17:03.003Z,5.95
2022-11-23T07:22:05.629Z,4.72
2022-11-23T07:27:08.308Z,6.00
2022-11-23T07:32:14.881Z,6.05
2022-11-23T07:37:17.530Z,5.28
2022-11-23T07:42:44.562Z,6.07
2022-11-23T07:47:47.041Z,5.03
2022-11-23T07:52:49.617Z,4.43
2022-11-23T07:57:55.914Z,5.70
2022-11-23T08:08:24.063Z,6.13
2022-11-23T08:13:26.751Z,6.95
2022-11-23T08:18:30.888Z,6.22
2022-11-23T08:23:33.540Z,7.15
2022-11-23T08:28:37.836Z,7.10
2022-11-23T08:33:42.054Z,8.13
2022-11-23T08:38:44.901Z,6.50
2022-11-23T08:43:47.654Z,7.55
2022-11-23T08:48:51.723Z,8.30
2022-11-23T08:53:54.548Z,6.95
2022-11-23T08:58:57.200Z,7.53
2022-11-23T09:04:01.934Z,6.63
2022-11-23T09:09:10.966Z,6.25
2022-11-23T09:14:13.562Z,6.78
2022-11-23T09:19:17.635Z,4.45
2022-11-23T09:24:20.407Z,2.67
2022-11-23T09:29:23.107Z,3.10
2022-11-23T09:34:27.327Z,2.15
2022-11-23T09:39:29.892Z,3.08
2022-11-23T09:44:44.796Z,3.00
2022-11-23T09:49:59.966Z,2.85
2022-11-23T09:55:10.356Z,2.60
2022-11-23T10:00:21.906Z,2.95
2022-11-23T10:05:28.995Z,2.78
2022-11-23T10:10:41.743Z,2.28
2022-11-23T10:16:00.989Z,2.35
2022-11-23T10:21:15.562Z,2.00
2022-11-23T10:26:20.413Z,1.63
2022-11-23T10:31:25.952Z,1.90
2022-11-23T10:36:36.525Z,1.85
2022-11-23T10:41:39.150Z,2.28
2022-11-23T10:46:42.223Z,2.15
2022-11-23T10:51:57.907Z,2.13
2022-11-23T10:57:02.858Z,1.90
2022-11-23T11:02:20.336Z,2.72
2022-11-23T11:07:28.412Z,3.05
2022-11-23T11:12:35.429Z,2.38
2022-11-23T11:17:40.990Z,2.15
2022-11-23T11:22:47.875Z,2.03
2022-11-23T11:27:53.308Z,1.98
2022-11-23T11:33:05.126Z,1.85
2022-11-23T11:38:15.873Z,2.90
2022-11-23T11:43:29.289Z,3.42
2022-11-23T11:48:39.086Z,3.00
2022-11-23T11:53:50.429Z,2.80
2022-11-23T11:59:00.195Z,1.77
2022-11-23T12:04:08.074Z,1.95
2022-11-23T12:09:17.095Z,1.67
2022-11-23T12:14:20.091Z,2.25
2022-11-23T12:19:27.738Z,1.70
2022-11-23T12:24:47.085Z,1.70
2022-11-23T12:30:13.521Z,1.38
2022-11-23T12:35:35.847Z,1.50
2022-11-23T12:41:23.470Z,1.65
2022-11-23T12:46:37.437Z,1.90
2022-11-23T12:51:48.073Z,1.40
2022-11-23T12:57:00.665Z,1.65
2022-11-23T13:02:10.661Z,1.63
2022-11-23T13:07:46.081Z,1.60
2022-11-23T13:13:14.065Z,1.80
2022-11-23T13:18:28.703Z,1.80
2022-11-23T13:23:37.286Z,1.73
2022-11-23T13:28:41.434Z,1.60
2022-11-23T13:33:45.651Z,1.40
2022-11-23T13:38:48.417Z,1.38
2022-11-23T13:43:52.872Z,1.25
2022-11-23T13:59:30.773Z,2.58
2022-11-23T14:04:35.095Z,2.40
2022-11-23T14:09:46.508Z,2.25
2022-11-23T14:14:57.168Z,2.65
2022-11-23T14:20:15.137Z,3.55
2022-11-23T14:25:35.771Z,3.13
2022-11-23T14:31:05.909Z,3.45
2022-11-23T14:36:21.136Z,3.95
2022-11-23T14:41:25.599Z,3.70
2022-11-23T14:51:34.832Z,4.60
2022-11-23T14:56:43.851Z,6.47
2022-11-23T15:01:51.322Z,5.38
2022-11-23T15:06:58.941Z,6.80
2022-11-23T15:12:10.116Z,13.10
2022-11-23T15:17:19.192Z,31.30
2022-11-23T15:22:22.223Z,35.22
2022-11-23T15:27:29.294Z,34.17
2022-11-23T15:32:35.071Z,28.90
2022-11-23T15:37:44.585Z,36.72
2022-11-23T15:42:50.961Z,35.90
2022-11-23T15:47:54.953Z,30.02
2022-11-23T15:53:00.578Z,26.73
2022-11-23T15:58:08.925Z,22.58
2022-11-23T16:03:30.197Z,13.98
2022-11-23T16:08:37.457Z,9.88
2022-11-23T16:13:40.703Z,14.80
2022-11-23T16:18:47.629Z,10.65
2022-11-23T16:23:54.099Z,5.70
2022-11-23T16:28:58.592Z,2.22
2022-11-23T16:34:02.679Z,3.67
2022-11-23T16:39:05.967Z,3.72
2022-11-23T16:44:08.685Z,4.97
2022-11-23T16:49:16.960Z,5.03
2022-11-23T16:54:31.775Z,6.35
2022-11-23T16:59:35.621Z,5.57
2022-11-23T17:04:39.878Z,3.83
2022-11-23T17:09:42.622Z,4.43
2022-11-23T17:14:48.575Z,5.35
2022-11-23T17:19:52.967Z,5.07
2022-11-23T17:24:55.676Z,4.28
2022-11-23T17:30:00.756Z,6.05
2022-11-23T17:35:05.344Z,6.65
2022-11-23T17:45:19.396Z,5.18
2022-11-23T17:50:25.095Z,5.05
2022-11-23T17:55:27.767Z,5.22
2022-11-23T18:00:31.005Z,5.68
2022-11-23T18:05:35.140Z,4.95
2022-11-23T18:10:38.056Z,4.05
2022-11-23T18:15:40.736Z,5.90
2022-11-23T18:20:44.821Z,5.10
2022-11-23T18:25:47.476Z,6.10
2022-11-23T18:30:50.169Z,6.18
2022-11-23T18:35:54.243Z,5.55
2022-11-23T18:40:56.885Z,4.38
2022-11-23T18:45:59.851Z,5.80
2022-11-23T18:51:06.139Z,6.40
2022-11-23T18:56:10.415Z,23.52
2022-11-23T19:01:15.269Z,8.52
2022-11-23T19:06:20.597Z,11.95
2022-11-23T19:11:25.897Z,26.45
2022-11-23T19:16:31.320Z,19.60
2022-11-23T19:21:36.746Z,12.95
2022-11-23T19:26:39.410Z,9.25
2022-11-23T19:31:42.375Z,11.30
2022-11-23T19:36:46.357Z,11.07
2022-11-23T19:41:49.111Z,10.82
2022-11-23T19:46:51.744Z,9.85
2022-11-23T19:51:56.937Z,8.30
2022-11-23T19:56:59.550Z,8.07
2022-11-23T20:02:02.206Z,8.77
2022-11-23T20:07:06.797Z,8.25
2022-11-23T20:17:11.816Z,6.55
2022-11-23T20:22:15.850Z,6.50
2022-11-23T20:27:18.459Z,5.65
2022-11-23T20:32:21.010Z,8.30
2022-11-23T20:37:25.024Z,7.63
2022-11-23T20:42:27.605Z,5.80
2022-11-23T20:47:30.262Z,7.35
2022-11-23T20:52:34.737Z,6.60
2022-11-23T20:57:37.281Z,8.40
2022-11-23T21:02:39.938Z,7.63
2022-11-23T21:07:44.163Z,6.90
2022-11-23T21:13:04.337Z,5.05
2022-11-23T21:18:07.217Z,6.80
2022-11-23T21:23:11.396Z,6.30
2022-11-23T21:28:13.985Z,4.82
2022-11-23T21:33:16.558Z,6.22
2022-11-23T21:38:23.371Z,6.40
2022-11-23T21:43:26.081Z,6.50
2022-11-23T21:48:28.807Z,6.32
2022-11-23T21:53:33.416Z,7.00
2022-11-23T21:58:36.319Z,5.72
2022-11-23T22:03:40.267Z,6.43
2022-11-23T22:08:45.888Z,5.35
2022-11-23T22:13:49.470Z,7.00
2022-11-23T22:18:55.806Z,4.47
2022-11-23T22:24:01.025Z,6.13
2022-11-23T22:29:06.656Z,6.45
2022-11-23T22:34:13.113Z,7.00
2022-11-23T22:39:17.014Z,7.15
2022-11-23T22:44:19.596Z,5.07
2022-11-23T22:49:22.191Z,6.15
2022-11-23T22:54:26.141Z,6.75
2022-11-23T22:59:28.724Z,5.45
2022-11-23T23:04:31.662Z,6.75
2022-11-23T23:09:35.820Z,5.93
2022-11-23T23:14:38.392Z,6.28
2022-11-23T23:19:41.112Z,6.75
2022-11-23T23:24:45.036Z,6.95
2022-11-23T23:29:47.652Z,6.93
2022-11-23T23:34:50.228Z,6.78
2022-11-23T23:39:54.143Z,6.93
2022-11-23T23:44:56.917Z,5.47
2022-11-23T23:49:59.493Z,6.88
2022-11-23T23:55:03.467Z,6.75
